createdAt,value
2018-05-29T00:02:07.036Z,22.63
2018-05-29T00:04:34.541Z,24.00
2018-05-29T00:07:02.094Z,21.17
2018-05-29T00:09:29.585Z,22.30
2018-05-29T00:11:57.067Z,22.80
2018-05-29T00:14:24.596Z,21.57
2018-05-29T00:16:52.078Z,23.23
2018-05-29T00:19:19.587Z,21.80
2018-05-29T00:21:47.170Z,21.50
2018-05-29T00:24:14.633Z,22.47
2018-05-29T00:26:42.135Z,23.60
2018-05-29T00:29:11.159Z,21.37
2018-05-29T00:31:38.708Z,22.90
2018-05-29T00:34:06.187Z,23.77
2018-05-29T00:36:33.677Z,23.50
2018-05-29T00:39:01.174Z,23.17
2018-05-29T00:41:28.670Z,23.17
2018-05-29T00:43:56.161Z,24.70
2018-05-29T00:46:23.672Z,23.60
2018-05-29T00:48:51.239Z,22.77
2018-05-29T00:51:18.730Z,24.00
2018-05-29T00:53:46.259Z,23.43
2018-05-29T00:56:13.758Z,24.33
2018-05-29T00:58:41.250Z,24.43
2018-05-29T01:01:08.733Z,24.13
2018-05-29T01:03:36.255Z,23.60
2018-05-29T01:06:03.821Z,24.63
2018-05-29T01:08:31.375Z,24.90
2018-05-29T01:10:58.941Z,23.13
2018-05-29T01:13:26.415Z,25.50
2018-05-29T01:15:53.888Z,25.40
2018-05-29T01:18:21.365Z,22.97
2018-05-29T01:20:48.878Z,22.90
2018-05-29T01:23:16.363Z,24.17
2018-05-29T01:25:43.851Z,23.97
2018-05-29T01:28:11.357Z,23.77
2018-05-29T01:30:38.867Z,21.90
2018-05-29T01:33:06.401Z,24.70
2018-05-29T01:35:33.831Z,25.30
2018-05-29T01:38:01.310Z,23.50
2018-05-29T01:40:28.802Z,25.07
2018-05-29T01:42:56.295Z,25.43
2018-05-29T01:45:23.793Z,24.10
2018-05-29T01:47:51.315Z,27.47
2018-05-29T01:50:18.831Z,26.07
2018-05-29T01:52:46.334Z,26.23
2018-05-29T01:55:13.812Z,25.60
2018-05-29T01:57:41.293Z,26.77
2018-05-29T02:00:08.807Z,28.10
2018-05-29T02:02:36.282Z,24.10
2018-05-29T02:05:03.823Z,26.27
2018-05-29T02:07:31.301Z,26.57
2018-05-29T02:09:58.826Z,25.17
2018-05-29T02:12:26.316Z,27.13
2018-05-29T02:14:53.800Z,28.40
2018-05-29T02:17:21.292Z,26.50
2018-05-29T02:19:48.787Z,28.27
2018-05-29T02:22:17.177Z,26.70
2018-05-29T02:24:44.679Z,27.10
2018-05-29T02:27:12.158Z,27.00
2018-05-29T02:29:39.638Z,27.80
2018-05-29T02:32:07.121Z,27.30
2018-05-29T02:34:34.628Z,28.80
2018-05-29T02:37:02.116Z,32.03
2018-05-29T02:39:29.597Z,29.53
2018-05-29T02:41:57.102Z,30.40
2018-05-29T02:44:24.585Z,32.87
2018-05-29T02:46:52.081Z,29.53
2018-05-29T02:49:19.580Z,31.27
2018-05-29T02:51:47.104Z,32.10
2018-05-29T02:54:14.574Z,32.10
2018-05-29T02:56:42.061Z,30.83
2018-05-29T02:59:09.576Z,31.80
2018-05-29T03:01:38.341Z,33.87
2018-05-29T03:04:05.853Z,32.50
2018-05-29T03:06:34.730Z,32.10
2018-05-29T03:09:02.443Z,32.97
2018-05-29T03:11:31.253Z,33.17
2018-05-29T03:13:58.730Z,34.43
2018-05-29T03:16:26.213Z,34.00
2018-05-29T03:18:54.328Z,33.27
2018-05-29T03:21:21.860Z,33.73
2018-05-29T03:23:50.053Z,31.60
2018-05-29T03:26:18.905Z,31.93
2018-05-29T03:28:48.178Z,32.10
2018-05-29T03:31:15.948Z,34.30
2018-05-29T03:33:43.505Z,32.30
2018-05-29T03:36:10.982Z,33.57
2018-05-29T03:38:38.499Z,34.37
2018-05-29T03:41:05.977Z,33.87
2018-05-29T03:43:33.995Z,34.93
2018-05-29T03:46:01.470Z,30.27
2018-05-29T03:48:28.962Z,34.47
2018-05-29T03:50:56.458Z,31.50
2018-05-29T03:53:23.958Z,30.40
2018-05-29T03:55:52.977Z,30.67
2018-05-29T03:58:20.491Z,30.60
2018-05-29T04:00:47.978Z,31.27
2018-05-29T04:03:15.451Z,31.90
2018-05-29T04:05:42.933Z,31.43
2018-05-29T04:08:10.488Z,30.40
2018-05-29T04:10:38.855Z,29.63
2018-05-29T04:13:06.351Z,32.03
2018-05-29T04:15:33.885Z,28.20
2018-05-29T04:18:01.376Z,30.13
2018-05-29T04:20:28.865Z,29.63
2018-05-29T04:22:56.351Z,30.27
2018-05-29T04:25:23.859Z,28.67
2018-05-29T04:27:51.422Z,27.97
2018-05-29T04:30:18.947Z,26.87
2018-05-29T04:32:46.442Z,27.67
2018-05-29T04:35:13.925Z,24.50
2018-05-29T04:37:41.415Z,25.80
2018-05-29T04:40:08.942Z,26.47
2018-05-29T04:42:36.445Z,24.80
2018-05-29T04:45:03.941Z,25.10
2018-05-29T04:47:31.424Z,25.00
2018-05-29T04:49:58.983Z,24.03
2018-05-29T04:52:26.479Z,24.60
2018-05-29T04:54:53.974Z,24.50
2018-05-29T04:57:21.453Z,20.90
2018-05-29T04:59:48.958Z,21.17
2018-05-29T05:02:16.438Z,22.67
2018-05-29T05:04:43.905Z,20.17
2018-05-29T05:07:11.381Z,19.80
2018-05-29T05:09:38.853Z,20.10
2018-05-29T05:12:06.302Z,18.53
2018-05-29T05:14:33.773Z,19.70
2018-05-29T05:17:01.309Z,19.27
2018-05-29T05:19:28.868Z,17.70
2018-05-29T05:21:56.370Z,19.03
2018-05-29T05:24:23.843Z,18.33
2018-05-29T05:26:51.357Z,18.80
2018-05-29T05:29:18.842Z,18.80
2018-05-29T05:31:46.340Z,20.17
2018-05-29T05:34:13.805Z,18.13
2018-05-29T05:36:41.358Z,18.70
2018-05-29T05:39:08.834Z,17.50
2018-05-29T05:41:36.293Z,16.73
2018-05-29T05:44:03.796Z,15.83
2018-05-29T05:46:31.276Z,17.33
2018-05-29T05:48:58.761Z,16.83
2018-05-29T05:51:26.237Z,16.03
2018-05-29T05:53:53.698Z,15.20
2018-05-29T05:56:21.155Z,14.87
2018-05-29T05:58:48.627Z,16.30
2018-05-29T06:01:16.081Z,15.57
2018-05-29T06:03:43.533Z,14.80
2018-05-29T06:06:11.010Z,15.40
2018-05-29T06:08:42.174Z,14.80
2018-05-29T06:11:12.295Z,16.30
2018-05-29T06:13:39.810Z,17.13
2018-05-29T06:16:07.310Z,15.13
2018-05-29T06:18:34.779Z,14.33
2018-05-29T06:21:02.259Z,15.60
2018-05-29T06:23:29.722Z,15.77
2018-05-29T06:25:57.228Z,15.87
2018-05-29T06:28:24.707Z,14.17
2018-05-29T06:30:52.184Z,16.00
2018-05-29T06:33:19.652Z,15.10
2018-05-29T06:35:47.130Z,15.03
2018-05-29T06:38:14.620Z,14.63
2018-05-29T06:40:42.113Z,14.53
2018-05-29T06:43:11.084Z,15.57
2018-05-29T06:45:38.590Z,15.53
2018-05-29T06:48:06.131Z,14.40
2018-05-29T06:50:33.607Z,15.10
2018-05-29T06:53:01.072Z,15.00
2018-05-29T06:55:28.567Z,14.70
2018-05-29T06:57:56.094Z,14.13
2018-05-29T07:00:23.570Z,15.07
2018-05-29T07:02:51.063Z,14.67
2018-05-29T07:05:18.575Z,14.17
2018-05-29T07:07:46.099Z,15.27
2018-05-29T07:10:13.615Z,14.77
2018-05-29T07:12:41.136Z,14.30
2018-05-29T07:15:08.615Z,13.70
2018-05-29T07:17:36.132Z,13.83
2018-05-29T07:20:03.647Z,14.70
2018-05-29T07:22:31.153Z,15.80
2018-05-29T07:24:58.695Z,13.60
2018-05-29T07:27:26.188Z,14.73
2018-05-29T07:29:53.691Z,14.90
2018-05-29T07:32:21.200Z,14.17
2018-05-29T07:34:48.680Z,15.20
2018-05-29T07:37:16.174Z,13.63
2018-05-29T07:39:43.698Z,13.90
2018-05-29T07:42:11.179Z,13.83
2018-05-29T07:44:40.191Z,13.70
2018-05-29T07:47:11.086Z,13.80
2018-05-29T07:49:39.560Z,14.20
2018-05-29T07:52:07.040Z,13.77
2018-05-29T07:54:34.564Z,13.17
2018-05-29T07:57:02.044Z,14.03
2018-05-29T07:59:29.516Z,13.53
2018-05-29T08:01:57.067Z,15.00
2018-05-29T08:04:24.634Z,13.47
2018-05-29T08:06:52.195Z,12.40
2018-05-29T08:09:19.714Z,12.90
2018-05-29T08:11:47.227Z,12.73
2018-05-29T08:14:14.733Z,12.63
2018-05-29T08:16:42.232Z,11.37
2018-05-29T08:19:09.732Z,12.67
2018-05-29T08:21:37.229Z,12.10
2018-05-29T08:24:04.749Z,11.47
2018-05-29T08:26:32.228Z,12.70
2018-05-29T08:28:59.718Z,11.37
2018-05-29T08:31:27.189Z,11.37
2018-05-29T08:33:54.697Z,11.07
2018-05-29T08:36:22.200Z,10.97
2018-05-29T08:38:49.744Z,11.10
2018-05-29T08:41:17.269Z,11.10
2018-05-29T08:43:44.761Z,10.57
2018-05-29T08:46:12.240Z,10.80
2018-05-29T08:48:39.757Z,9.97
2018-05-29T08:51:07.303Z,10.30
2018-05-29T08:53:34.808Z,10.33
2018-05-29T08:56:02.321Z,9.67
2018-05-29T08:58:29.894Z,9.30
2018-05-29T09:00:57.366Z,10.37
2018-05-29T09:03:24.856Z,9.70
2018-05-29T09:05:52.353Z,9.30
2018-05-29T09:08:20.206Z,10.07
2018-05-29T09:10:47.708Z,9.57
2018-05-29T09:13:15.981Z,9.53
2018-05-29T09:15:43.445Z,9.03
2018-05-29T09:18:11.021Z,9.63
2018-05-29T09:20:38.539Z,9.67
2018-05-29T09:23:06.672Z,10.50
2018-05-29T09:25:34.154Z,9.93
2018-05-29T09:28:01.685Z,10.20
2018-05-29T09:30:30.433Z,10.50
2018-05-29T09:32:57.945Z,9.47
2018-05-29T09:35:25.459Z,8.97
2018-05-29T09:37:52.975Z,10.10
2018-05-29T09:40:20.466Z,8.67
2018-05-29T09:42:47.958Z,9.60
2018-05-29T09:45:15.476Z,9.47
2018-05-29T09:47:42.958Z,9.30
2018-05-29T09:50:10.431Z,8.83
2018-05-29T09:52:37.911Z,8.83
2018-05-29T09:55:05.435Z,9.70
2018-05-29T09:57:32.955Z,9.93
2018-05-29T10:00:00.426Z,8.80
2018-05-29T10:02:27.949Z,9.27
2018-05-29T10:04:56.031Z,9.10
2018-05-29T10:07:23.521Z,8.90
2018-05-29T10:09:51.062Z,9.00
2018-05-29T10:12:18.543Z,9.63
2018-05-29T10:14:46.015Z,9.50
2018-05-29T10:17:13.513Z,8.50
2018-05-29T10:19:41.000Z,9.60
2018-05-29T10:22:08.490Z,8.90
2018-05-29T10:24:36.005Z,8.07
2018-05-29T10:27:03.484Z,8.63
2018-05-29T10:29:30.995Z,9.30
2018-05-29T10:31:58.540Z,8.90
2018-05-29T10:34:26.045Z,8.37
2018-05-29T10:36:53.585Z,7.90
2018-05-29T10:39:21.127Z,8.17
2018-05-29T10:41:48.621Z,9.20
2018-05-29T10:44:16.084Z,8.50
2018-05-29T10:46:43.664Z,8.57
2018-05-29T10:49:11.227Z,7.60
2018-05-29T10:51:38.752Z,8.00
2018-05-29T10:54:06.254Z,8.07
2018-05-29T10:56:33.744Z,7.60
2018-05-29T10:59:01.260Z,8.10
2018-05-29T11:01:28.740Z,6.63
2018-05-29T11:03:56.245Z,7.20
2018-05-29T11:06:24.505Z,7.83
2018-05-29T11:09:04.223Z,7.00
2018-05-29T11:11:35.131Z,7.10
2018-05-29T11:14:11.214Z,7.00
2018-05-29T11:16:38.828Z,6.23
2018-05-29T11:21:48.729Z,7.10
2018-05-29T11:24:16.395Z,6.07
2018-05-29T11:26:55.328Z,6.47
2018-05-29T11:29:23.759Z,6.50
2018-05-29T11:31:55.759Z,6.60
2018-05-29T11:34:24.888Z,6.50
2018-05-29T11:36:53.532Z,5.90
2018-05-29T11:39:20.986Z,5.93
2018-05-29T11:41:48.467Z,6.13
2018-05-29T11:44:18.726Z,7.10
2018-05-29T11:46:46.661Z,6.53
2018-05-29T11:49:17.172Z,6.50
2018-05-29T11:51:44.651Z,7.40
2018-05-29T11:54:19.600Z,6.80
2018-05-29T11:56:50.422Z,7.13
2018-05-29T11:59:22.945Z,6.57
2018-05-29T12:01:52.023Z,6.57
2018-05-29T12:04:19.531Z,6.70
2018-05-29T12:06:47.041Z,6.87
2018-05-29T12:09:14.496Z,6.10
2018-05-29T12:11:42.009Z,6.90
2018-05-29T12:14:09.484Z,7.30
2018-05-29T12:16:36.939Z,5.93
2018-05-29T12:19:04.407Z,7.30
2018-05-29T12:21:31.896Z,6.57
2018-05-29T12:23:59.365Z,6.40
2018-05-29T12:26:26.853Z,6.27
2018-05-29T12:28:54.421Z,6.17
2018-05-29T12:31:21.889Z,6.20
2018-05-29T12:33:49.367Z,6.17
2018-05-29T12:36:16.918Z,5.77
2018-05-29T12:38:44.384Z,5.80
2018-05-29T12:41:11.853Z,6.40
2018-05-29T12:43:39.507Z,6.07
2018-05-29T12:46:07.031Z,5.80
2018-05-29T12:48:35.758Z,6.50
2018-05-29T12:51:03.643Z,5.83
2018-05-29T12:53:31.129Z,6.30
2018-05-29T12:55:58.587Z,5.93
2018-05-29T12:58:26.088Z,6.00
2018-05-29T13:00:53.564Z,5.10
2018-05-29T13:03:21.086Z,5.70
2018-05-29T13:05:48.575Z,5.70
2018-05-29T13:08:16.041Z,5.67
2018-05-29T13:10:43.529Z,5.43
2018-05-29T13:13:11.048Z,5.87
2018-05-29T13:15:38.503Z,5.77
2018-05-29T13:18:05.959Z,5.40
2018-05-29T13:20:33.464Z,5.57
2018-05-29T13:23:00.936Z,5.87
2018-05-29T13:25:28.400Z,5.13
2018-05-29T13:27:55.886Z,5.00
2018-05-29T13:30:23.349Z,5.33
2018-05-29T13:32:52.629Z,5.73
2018-05-29T13:35:20.279Z,5.33
2018-05-29T13:37:47.780Z,6.23
2018-05-29T13:40:15.463Z,6.37
2018-05-29T13:42:42.991Z,5.63
2018-05-29T13:45:10.545Z,5.37
2018-05-29T13:47:38.090Z,6.00
2018-05-29T13:50:05.578Z,6.67
2018-05-29T13:52:33.055Z,5.80
2018-05-29T13:55:00.511Z,6.20
2018-05-29T13:57:28.279Z,6.80
2018-05-29T13:59:55.753Z,5.40
2018-05-29T14:02:23.234Z,5.40
2018-05-29T14:04:50.684Z,6.07
2018-05-29T14:07:18.162Z,5.80
2018-05-29T14:09:45.702Z,5.40
2018-05-29T14:12:13.238Z,4.50
2018-05-29T14:14:40.721Z,5.57
2018-05-29T14:17:08.179Z,6.40
2018-05-29T14:19:35.685Z,4.80
2018-05-29T14:22:03.191Z,4.70
2018-05-29T14:24:30.660Z,4.97
2018-05-29T14:26:58.152Z,4.93
2018-05-29T14:29:25.620Z,4.97
2018-05-29T14:31:53.096Z,4.90
2018-05-29T14:34:21.076Z,4.83
2018-05-29T14:36:48.559Z,5.10
2018-05-29T14:39:16.035Z,4.40
2018-05-29T14:41:43.512Z,3.73
2018-05-29T14:44:11.013Z,3.63
2018-05-29T14:46:38.496Z,3.90
2018-05-29T14:49:05.974Z,4.05
2018-05-29T14:51:33.428Z,3.90
2018-05-29T14:54:00.985Z,3.62
2018-05-29T14:56:28.462Z,3.70
2018-05-29T14:58:56.036Z,3.83
2018-05-29T15:01:23.560Z,3.87
2018-05-29T15:03:51.151Z,4.13
2018-05-29T15:06:19.428Z,4.33
2018-05-29T15:08:46.989Z,4.50
2018-05-29T15:11:14.531Z,5.13
2018-05-29T15:13:42.134Z,5.43
2018-05-29T15:16:09.624Z,5.30
2018-05-29T15:18:37.133Z,5.30
2018-05-29T15:21:04.599Z,5.40
2018-05-29T15:23:32.087Z,5.00
2018-05-29T15:25:59.566Z,4.07
2018-05-29T15:28:27.060Z,5.00
2018-05-29T15:30:57.111Z,5.03
2018-05-29T15:33:24.680Z,4.40
2018-05-29T15:35:52.171Z,4.10
2018-05-29T15:38:19.680Z,4.20
2018-05-29T15:40:47.160Z,4.30
2018-05-29T15:43:14.756Z,4.20
2018-05-29T15:45:42.276Z,4.10
2018-05-29T15:48:09.733Z,4.03
2018-05-29T15:50:37.221Z,3.70
2018-05-29T15:53:04.751Z,4.70
2018-05-29T15:55:32.236Z,5.10
2018-05-29T15:57:59.729Z,4.97
2018-05-29T16:00:27.231Z,4.90
2018-05-29T16:02:54.788Z,4.97
2018-05-29T16:05:22.249Z,4.63
2018-05-29T16:07:49.773Z,4.73
2018-05-29T16:10:17.257Z,5.33
2018-05-29T16:12:44.840Z,4.53
2018-05-29T16:15:19.283Z,4.80
2018-05-29T16:17:46.736Z,4.73
2018-05-29T16:20:27.955Z,5.00
2018-05-29T16:35:50.551Z,4.83
2018-05-29T16:38:18.052Z,5.10
2018-05-29T16:40:45.627Z,5.57
2018-05-29T16:43:13.124Z,5.30
2018-05-29T16:45:40.609Z,4.70
2018-05-29T16:48:09.633Z,5.50
2018-05-29T16:50:37.135Z,5.50
2018-05-29T16:56:00.660Z,4.50
2018-05-29T16:58:28.113Z,5.07
2018-05-29T17:00:55.607Z,5.20
2018-05-29T17:03:23.177Z,5.27
2018-05-29T17:05:51.281Z,5.57
2018-05-29T17:08:18.837Z,5.30
2018-05-29T17:10:46.328Z,5.90
2018-05-29T17:13:13.792Z,5.57
2018-05-29T17:23:23.308Z,6.90
2018-05-29T17:25:52.952Z,6.90
2018-05-29T17:28:20.739Z,6.80
2018-05-29T17:30:48.216Z,7.10
2018-05-29T17:33:17.330Z,7.77
2018-05-29T17:35:44.816Z,5.77
2018-05-29T17:38:12.408Z,6.17
2018-05-29T17:40:40.319Z,6.60
2018-05-29T17:43:07.904Z,6.00
2018-05-29T17:45:35.621Z,6.53
2018-05-29T17:48:03.317Z,6.30
2018-05-29T17:50:30.846Z,6.40
2018-05-29T17:52:58.307Z,7.00
2018-05-29T17:55:26.081Z,7.97
2018-05-29T17:57:53.907Z,8.10
2018-05-29T18:00:26.085Z,7.43
2018-05-29T18:02:53.721Z,8.17
2018-05-29T18:05:21.522Z,7.70
2018-05-29T18:07:51.147Z,7.50
2018-05-29T18:10:18.693Z,7.17
2018-05-29T18:12:46.409Z,8.40
2018-05-29T18:15:14.078Z,8.17
2018-05-29T18:17:41.601Z,8.50
2018-05-29T18:20:09.167Z,7.90
2018-05-29T18:22:37.749Z,8.03
2018-05-29T18:25:06.095Z,8.07
2018-05-29T18:27:33.741Z,8.53
2018-05-29T18:30:04.264Z,10.57
2018-05-29T18:32:31.826Z,9.67
2018-05-29T18:35:01.284Z,9.63
2018-05-29T18:37:30.349Z,9.03
2018-05-29T18:40:00.142Z,9.30
2018-05-29T18:42:28.948Z,8.67
2018-05-29T18:44:57.262Z,8.90
2018-05-29T18:47:26.967Z,8.50
2018-05-29T18:49:56.026Z,9.40
2018-05-29T18:54:56.562Z,7.47
2018-05-29T18:57:27.538Z,7.40
2018-05-29T18:59:55.292Z,7.17
2018-05-29T19:02:22.860Z,7.63
2018-05-29T19:04:51.639Z,7.47
2018-05-29T19:07:19.341Z,8.20
2018-05-29T19:09:46.990Z,8.40
2018-05-29T19:12:14.652Z,7.67
2018-05-29T19:14:42.201Z,8.23
2018-05-29T19:17:09.848Z,7.47
2018-05-29T19:19:37.293Z,8.20
2018-05-29T19:22:04.832Z,8.67
2018-05-29T19:24:32.332Z,7.60
2018-05-29T19:26:59.828Z,8.50
2018-05-29T19:29:27.308Z,7.27
2018-05-29T19:31:54.823Z,7.80
2018-05-29T19:34:22.282Z,7.60
2018-05-29T19:36:49.788Z,7.23
2018-05-29T19:39:17.334Z,7.40
2018-05-29T19:41:46.280Z,8.00
2018-05-29T19:44:13.746Z,8.20
2018-05-29T19:46:41.340Z,7.73
2018-05-29T19:49:08.883Z,8.03
2018-05-29T19:51:36.376Z,7.37
2018-05-29T19:54:05.739Z,7.30
2018-05-29T19:56:34.288Z,7.93
2018-05-29T19:59:01.810Z,6.87
2018-05-29T20:01:29.510Z,8.10
2018-05-29T20:03:57.016Z,7.77
2018-05-29T20:06:25.318Z,8.60
2018-05-29T20:08:53.223Z,8.57
2018-05-29T20:11:20.727Z,7.87
2018-05-29T20:13:48.189Z,8.27
2018-05-29T20:16:15.693Z,8.00
2018-05-29T20:18:43.164Z,8.40
2018-05-29T20:21:10.644Z,7.83
2018-05-29T20:23:38.148Z,7.37
2018-05-29T20:26:05.686Z,7.90
2018-05-29T20:28:33.159Z,7.73
2018-05-29T20:31:00.716Z,7.57
2018-05-29T20:33:28.967Z,7.57
2018-05-29T20:35:56.519Z,7.30
2018-05-29T20:38:23.998Z,7.23
2018-05-29T20:40:51.767Z,7.50
2018-05-29T20:43:19.238Z,7.13
2018-05-29T20:45:46.720Z,7.50
2018-05-29T20:48:15.920Z,7.70
2018-05-29T20:50:43.427Z,7.87
2018-05-29T20:53:10.943Z,8.90
2018-05-29T20:55:41.512Z,8.30
2018-05-29T20:58:09.009Z,7.83
2018-05-29T21:00:36.712Z,8.43
2018-05-29T21:03:04.975Z,8.30
2018-05-29T21:08:20.637Z,8.30
2018-05-29T21:10:48.156Z,8.67
2018-05-29T21:13:15.614Z,7.97
2018-05-29T21:15:45.270Z,8.20
2018-05-29T21:18:14.263Z,8.10
2018-05-29T21:20:41.893Z,8.20
2018-05-29T21:23:09.380Z,8.53
2018-05-29T21:25:36.887Z,7.80
2018-05-29T21:28:04.350Z,8.47
2018-05-29T21:30:31.902Z,9.10
2018-05-29T21:32:59.822Z,8.83
2018-05-29T21:35:29.322Z,9.53
2018-05-29T21:37:56.843Z,8.70
2018-05-29T21:40:24.305Z,8.93
2018-05-29T21:42:52.002Z,8.90
2018-05-29T21:45:19.529Z,9.00
2018-05-29T21:47:47.653Z,9.20
2018-05-29T21:50:15.109Z,8.43
2018-05-29T21:52:42.600Z,8.90
2018-05-29T21:55:10.189Z,8.90
2018-05-29T21:57:37.682Z,8.57
2018-05-29T22:00:05.717Z,8.53
2018-05-29T22:02:33.378Z,10.10
2018-05-29T22:05:00.909Z,9.50
2018-05-29T22:07:28.415Z,9.50
2018-05-29T22:09:55.876Z,9.43
2018-05-29T22:12:23.360Z,10.13
2018-05-29T22:14:50.884Z,9.97
2018-05-29T22:17:18.487Z,9.43
2018-05-29T22:19:46.015Z,10.00
2018-05-29T22:22:13.507Z,10.00
2018-05-29T22:24:41.051Z,10.43
2018-05-29T22:27:08.578Z,9.17
2018-05-29T22:29:36.071Z,10.00
2018-05-29T22:32:03.668Z,10.20
2018-05-29T22:34:31.160Z,9.87
2018-05-29T22:36:58.711Z,10.30
2018-05-29T22:39:26.203Z,9.30
2018-05-29T22:41:55.052Z,9.73
2018-05-29T22:44:24.855Z,9.80
2018-05-29T22:46:52.424Z,9.60
2018-05-29T22:49:20.549Z,9.70
2018-05-29T22:51:48.916Z,10.47
2018-05-29T22:54:16.486Z,9.80
2018-05-29T22:56:47.136Z,9.70
2018-05-29T22:59:18.364Z,10.10
2018-05-29T23:01:46.491Z,9.70
2018-05-29T23:04:14.019Z,10.30
2018-05-29T23:06:41.527Z,10.87
2018-05-29T23:09:09.193Z,10.40
2018-05-29T23:11:36.871Z,10.10
2018-05-29T23:14:04.710Z,10.90
2018-05-29T23:16:32.207Z,10.63
2018-05-29T23:18:59.772Z,10.00
2018-05-29T23:21:27.273Z,11.47
2018-05-29T23:23:54.928Z,10.70
2018-05-29T23:26:22.446Z,10.10
2018-05-29T23:28:50.059Z,10.17
2018-05-29T23:31:17.582Z,11.07
2018-05-29T23:33:45.087Z,10.27
2018-05-29T23:36:12.643Z,10.37
2018-05-29T23:38:40.149Z,11.87
2018-05-29T23:41:07.650Z,10.50
2018-05-29T23:43:35.138Z,11.73
2018-05-29T23:46:02.664Z,10.87
2018-05-29T23:48:31.016Z,10.20
2018-05-29T23:50:59.450Z,11.30
2018-05-29T23:53:26.931Z,11.60
2018-05-29T23:55:54.510Z,11.30
2018-05-29T23:58:22.013Z,10.20
